Anwaar Alnaser — 5AXD — position and weather

sailwx.info

Track history (hours):
 
Tides and Currents Weather Stations Pressure Air Temp Water Temp Dewpoint Dewpoint Depression Visibility Wind Speed Wind Dir Waves Ship Positions

Anwaar Alnaser

Last reported at 2015-Aug-27 10:05 UTC. Time now 2015-Sep-03 15:12 UTC.
Position N 33°21' E 013°23'.

Length 165 m; draft 9.8 m.

Type: Ship (hazmat cat D). MMSI: 642122018.

Date/timePositionNaut miles runAvg speedWind from/ knotsBaromVisibWave heightAir tempDewpointWater temp
2015-Aug-27 10:05N 33°21' E 013°23'611.0
2015-Aug-27 09:30N 33°22' E 013°15'1211.8
2015-Aug-27 08:30N 33°24' E 013°01'1111.3
2015-Aug-27 07:33N 33°25' E 012°48'1212.2
2015-Aug-27 06:33N 33°29' E 012°34'1212.1
2015-Aug-27 05:33N 33°29' E 012°20'1312.7
2015-Aug-27 04:33N 33°35' E 012°06'1412.6
2015-Aug-27 03:26N 33°42' E 011°51'6012.0
2015-Aug-26 22:23N 34°05' E 010°44'1011.8
2015-Aug-26 21:33N 34°06' E 010°32'22 0.4
2015-Aug-24 17:33N 34°18' E 010°09'0 0.5
2015-Aug-24 16:33N 34°18' E 010°09'2 1.8
2015-Aug-24 15:33N 34°16' E 010°09'4 3.9
2015-Aug-24 14:33N 34°12' E 010°09'7 5.4
2015-Aug-24 13:17N 34°09' E 010°16'911.3
2015-Aug-24 12:28N 34°07' E 010°27'1213.4
2015-Aug-24 11:33N 34°05' E 010°41'1313.4
2015-Aug-24 10:33N 34°03' E 010°57'1313.3
2015-Aug-24 09:33N 33°59' E 011°13'1713.4
2015-Aug-24 08:19N 33°52' E 011°31'1113.5
2015-Aug-24 07:33N 33°48' E 011°42'1313.4
2015-Aug-24 06:33N 33°42' E 011°57'1313.3
2015-Aug-24 05:33N 33°36' E 012°11'1313.2
2015-Aug-24 04:33N 33°31' E 012°25'1313.3
2015-Aug-24 03:33N 33°25' E 012°40'1313.3
2015-Aug-24 02:33N 33°20' E 012°54'1413.4
2015-Aug-24 01:32N 33°14' E 013°09'1313.4
2015-Aug-24 00:33N 33°08' E 013°23'1313.2
2015-Aug-23 23:33N 33°04' E 013°38'1313.1
2015-Aug-23 22:33N 32°60' E 013°53'1313.2
2015-Aug-23 21:33N 32°55' E 014°08'1913.3
2015-Aug-23 20:06N 32°49' E 014°30'813.3
2015-Aug-23 19:30N 32°46' E 014°39'1313.4
2015-Aug-23 18:31N 32°42' E 014°53'2511.0
2015-Aug-23 16:14N 32°25' E 015°15'  
2015-Aug-20 15:27N 32°22' E 015°13'0 0.0
2015-Aug-20 14:33N 32°22' E 015°13'0 0.0
2015-Aug-20 11:30N 32°22' E 015°13'0 0.1
2015-Aug-20 10:33N 32°22' E 015°13'5 2.3
2015-Aug-20 08:30N 32°24' E 015°19'0 0.0
2015-Aug-20 07:27N 32°24' E 015°19'0 0.0
2015-Aug-20 06:33N 32°24' E 015°19'0 0.0
2015-Aug-19 21:32N 32°24' E 015°19'0 0.0
2015-Aug-19 20:32N 32°24' E 015°19'0 0.0
2015-Aug-19 19:17N 32°24' E 015°19'0 0.0
2015-Aug-19 18:32N 32°24' E 015°19'0 0.0
2015-Aug-19 16:23N 32°24' E 015°19'0 0.0
2015-Aug-19 15:32N 32°24' E 015°19'0 0.0
2015-Aug-19 14:32N 32°24' E 015°19'0 0.0
2015-Aug-19 03:11N 32°24' E 015°19'0 0.0
2015-Aug-19 02:23N 32°24' E 015°18'0 0.0
2015-Aug-19 01:17N 32°24' E 015°18'0 0.0
2015-Aug-19 00:32N 32°24' E 015°18'0 0.0
2015-Aug-18 23:29N 32°24' E 015°18'0 0.0
2015-Aug-18 21:14N 32°24' E 015°18'0 0.0
2015-Aug-18 20:32N 32°24' E 015°18'0 0.0
2015-Aug-18 19:17N 32°24' E 015°18'0 0.0
2015-Aug-18 18:23N 32°24' E 015°18'0 0.0
2015-Aug-18 17:32N 32°24' E 015°18'0 0.0
2015-Aug-18 01:22N 32°23' E 015°18'0 0.0
2015-Aug-17 23:31N 32°23' E 015°18'0 0.0
2015-Aug-17 19:31N 32°24' E 015°18'  
Track history (hours):
 
Tides and Currents Weather Stations Pressure Air Temp Water Temp Dewpoint Dewpoint Depression Visibility Wind Speed Wind Dir Waves Ship Positions

Anwaar Alnaser

Last reported at 2015-Aug-27 10:05 UTC. Time now 2015-Sep-03 15:12 UTC.
Position N 33°21' E 013°23'.

Length 165 m; draft 9.8 m.

Type: Ship (hazmat cat D). MMSI: 642122018.

Date/timePositionNaut miles runAvg speedWind from/ knotsBaromVisibWave heightAir tempDewpointWater temp
2015-Aug-27 10:05N 33°21' E 013°23'611.0
2015-Aug-27 09:30N 33°22' E 013°15'1211.8
2015-Aug-27 08:30N 33°24' E 013°01'1111.3
2015-Aug-27 07:33N 33°25' E 012°48'1212.2
2015-Aug-27 06:33N 33°29' E 012°34'1212.1
2015-Aug-27 05:33N 33°29' E 012°20'1312.7
2015-Aug-27 04:33N 33°35' E 012°06'1412.6
2015-Aug-27 03:26N 33°42' E 011°51'6012.0
2015-Aug-26 22:23N 34°05' E 010°44'1011.8
2015-Aug-26 21:33N 34°06' E 010°32'22 0.4
2015-Aug-24 17:33N 34°18' E 010°09'0 0.5
2015-Aug-24 16:33N 34°18' E 010°09'2 1.8
2015-Aug-24 15:33N 34°16' E 010°09'4 3.9
2015-Aug-24 14:33N 34°12' E 010°09'7 5.4
2015-Aug-24 13:17N 34°09' E 010°16'911.3
2015-Aug-24 12:28N 34°07' E 010°27'1213.4
2015-Aug-24 11:33N 34°05' E 010°41'1313.4
2015-Aug-24 10:33N 34°03' E 010°57'1313.3
2015-Aug-24 09:33N 33°59' E 011°13'1713.4
2015-Aug-24 08:19N 33°52' E 011°31'1113.5
2015-Aug-24 07:33N 33°48' E 011°42'1313.4
2015-Aug-24 06:33N 33°42' E 011°57'1313.3
2015-Aug-24 05:33N 33°36' E 012°11'1313.2
2015-Aug-24 04:33N 33°31' E 012°25'1313.3
2015-Aug-24 03:33N 33°25' E 012°40'1313.3
2015-Aug-24 02:33N 33°20' E 012°54'1413.4
2015-Aug-24 01:32N 33°14' E 013°09'1313.4
2015-Aug-24 00:33N 33°08' E 013°23'1313.2
2015-Aug-23 23:33N 33°04' E 013°38'1313.1
2015-Aug-23 22:33N 32°60' E 013°53'1313.2
2015-Aug-23 21:33N 32°55' E 014°08'1913.3
2015-Aug-23 20:06N 32°49' E 014°30'813.3
2015-Aug-23 19:30N 32°46' E 014°39'1313.4
2015-Aug-23 18:31N 32°42' E 014°53'2511.0
2015-Aug-23 16:14N 32°25' E 015°15'  
2015-Aug-20 15:27N 32°22' E 015°13'0 0.0
2015-Aug-20 14:33N 32°22' E 015°13'0 0.0
2015-Aug-20 11:30N 32°22' E 015°13'0 0.1
2015-Aug-20 10:33N 32°22' E 015°13'5 2.3
2015-Aug-20 08:30N 32°24' E 015°19'0 0.0
2015-Aug-20 07:27N 32°24' E 015°19'0 0.0
2015-Aug-20 06:33N 32°24' E 015°19'0 0.0
2015-Aug-19 21:32N 32°24' E 015°19'0 0.0
2015-Aug-19 20:32N 32°24' E 015°19'0 0.0
2015-Aug-19 19:17N 32°24' E 015°19'0 0.0
2015-Aug-19 18:32N 32°24' E 015°19'0 0.0
2015-Aug-19 16:23N 32°24' E 015°19'0 0.0
2015-Aug-19 15:32N 32°24' E 015°19'0 0.0
2015-Aug-19 14:32N 32°24' E 015°19'0 0.0
2015-Aug-19 03:11N 32°24' E 015°19'0 0.0
2015-Aug-19 02:23N 32°24' E 015°18'0 0.0
2015-Aug-19 01:17N 32°24' E 015°18'0 0.0
2015-Aug-19 00:32N 32°24' E 015°18'0 0.0
2015-Aug-18 23:29N 32°24' E 015°18'0 0.0
2015-Aug-18 21:14N 32°24' E 015°18'0 0.0
2015-Aug-18 20:32N 32°24' E 015°18'0 0.0
2015-Aug-18 19:17N 32°24' E 015°18'0 0.0
2015-Aug-18 18:23N 32°24' E 015°18'0 0.0
2015-Aug-18 17:32N 32°24' E 015°18'0 0.0
2015-Aug-18 01:22N 32°23' E 015°18'0 0.0
2015-Aug-17 23:31N 32°23' E 015°18'0 0.0
2015-Aug-17 19:31N 32°24' E 015°18'  

Dump ship's entire track history